createdAt,value
2023-11-19T00:00:15.567Z,80.78
2023-11-19T00:02:43.556Z,80.48
2023-11-19T00:05:13.072Z,80.92
2023-11-19T00:07:44.678Z,80.01
2023-11-19T00:10:13.385Z,80.83
2023-11-19T00:12:45.618Z,79.63
2023-11-19T00:15:13.335Z,80.53
2023-11-19T00:17:45.996Z,80.07
2023-11-19T00:20:13.847Z,80.12
2023-11-19T00:22:49.231Z,80.26
2023-11-19T00:25:16.737Z,80.27
2023-11-19T00:27:45.985Z,80.40
2023-11-19T00:30:14.632Z,79.85
2023-11-19T00:32:42.262Z,79.93
2023-11-19T00:35:11.223Z,79.80
2023-11-19T00:37:38.018Z,80.83
2023-11-19T00:40:06.834Z,79.79
2023-11-19T00:42:33.679Z,79.60
2023-11-19T00:45:00.347Z,79.62
2023-11-19T00:47:27.095Z,79.70
2023-11-19T00:49:53.721Z,80.39
2023-11-19T00:52:20.657Z,79.53
2023-11-19T00:54:47.298Z,79.85
2023-11-19T00:57:13.867Z,80.73
2023-11-19T00:59:43.524Z,80.46
2023-11-19T01:02:10.507Z,80.61
2023-11-19T01:04:37.885Z,80.49
2023-11-19T01:07:06.194Z,79.46
2023-11-19T01:09:36.083Z,79.72
2023-11-19T01:12:03.798Z,79.91
2023-11-19T01:14:30.601Z,80.40
2023-11-19T01:16:57.459Z,80.52
2023-11-19T01:19:24.438Z,79.54
2023-11-19T01:21:52.397Z,79.99
2023-11-19T01:24:19.178Z,79.71
2023-11-19T01:26:46.830Z,79.61
2023-11-19T01:29:16.382Z,79.44
2023-11-19T01:31:44.976Z,79.58
2023-11-19T01:34:13.138Z,80.05
2023-11-19T01:36:40.789Z,79.91
2023-11-19T01:39:08.245Z,79.91
2023-11-19T01:41:37.746Z,80.25
2023-11-19T01:44:07.332Z,79.86
2023-11-19T01:46:36.245Z,79.51
2023-11-19T01:49:04.511Z,80.24
2023-11-19T01:51:32.695Z,80.38
2023-11-19T01:54:00.793Z,79.55
2023-11-19T01:56:28.810Z,80.30
2023-11-19T01:58:57.550Z,79.62
2023-11-19T02:01:25.531Z,79.96
2023-11-19T02:03:54.000Z,79.46
2023-11-19T02:06:21.218Z,80.01
2023-11-19T02:08:48.090Z,80.28
2023-11-19T02:11:14.726Z,79.72
2023-11-19T02:13:42.781Z,79.74
2023-11-19T02:16:12.180Z,80.14
2023-11-19T02:18:39.483Z,79.83
2023-11-19T02:21:06.685Z,79.65
2023-11-19T02:23:33.973Z,80.00
2023-11-19T02:28:38.203Z,80.55
2023-11-19T02:31:06.310Z,79.87
2023-11-19T02:33:32.972Z,80.22
2023-11-19T02:35:59.718Z,80.63
2023-11-19T02:38:26.940Z,79.85
2023-11-19T02:40:53.582Z,80.27
2023-11-19T02:43:20.485Z,80.83
2023-11-19T02:45:47.362Z,80.16
2023-11-19T02:48:15.623Z,80.12
2023-11-19T02:50:43.347Z,80.52
2023-11-19T02:53:10.028Z,80.43
2023-11-19T02:55:39.332Z,80.77
2023-11-19T02:58:20.587Z,80.53
2023-11-19T03:00:58.248Z,79.68
2023-11-19T03:03:30.035Z,80.07
2023-11-19T03:05:57.024Z,79.29
2023-11-19T03:08:24.011Z,79.28
2023-11-19T03:10:50.825Z,79.41
2023-11-19T03:13:19.119Z,79.76
2023-11-19T03:15:46.140Z,79.69
2023-11-19T03:18:12.821Z,79.64
2023-11-19T03:20:39.539Z,79.46
2023-11-19T03:23:07.277Z,78.85
2023-11-19T03:25:35.356Z,79.49
2023-11-19T03:28:03.526Z,78.80
2023-11-19T03:33:02.622Z,79.75
2023-11-19T03:35:30.194Z,78.72
2023-11-19T03:37:57.184Z,79.61
2023-11-19T03:40:25.265Z,79.36
2023-11-19T03:42:52.183Z,79.13
2023-11-19T03:45:18.863Z,79.26
2023-11-19T03:47:45.501Z,79.19
2023-11-19T03:50:12.147Z,78.93
2023-11-19T03:55:09.874Z,79.66
2023-11-19T03:57:36.850Z,79.26
2023-11-19T04:00:11.013Z,79.30
2023-11-19T04:02:38.363Z,79.17
2023-11-19T04:05:06.353Z,79.76
2023-11-19T04:07:33.290Z,78.83
2023-11-19T04:10:00.482Z,79.11
2023-11-19T04:12:27.230Z,78.90
2023-11-19T04:17:24.322Z,79.55
2023-11-19T04:19:51.336Z,79.69
2023-11-19T04:22:18.313Z,78.71
2023-11-19T04:24:46.843Z,78.77
2023-11-19T04:27:13.808Z,79.83
2023-11-19T04:29:40.538Z,78.69
2023-11-19T04:32:07.482Z,79.36
2023-11-19T04:34:34.288Z,78.81
2023-11-19T04:39:34.113Z,79.72
2023-11-19T04:42:00.682Z,79.02
2023-11-19T04:44:27.214Z,79.70
2023-11-19T04:46:53.954Z,78.75
2023-11-19T04:49:20.730Z,79.68
2023-11-19T04:51:49.077Z,79.60
2023-11-19T04:54:15.682Z,79.82
2023-11-19T04:56:46.686Z,79.42
2023-11-19T04:59:13.238Z,79.95
2023-11-19T05:01:39.859Z,79.35
2023-11-19T05:04:08.680Z,79.06
2023-11-19T05:06:36.378Z,79.88
2023-11-19T05:09:08.315Z,78.94
2023-11-19T05:11:35.675Z,79.66
2023-11-19T05:14:05.617Z,79.43
2023-11-19T05:16:33.110Z,79.92
2023-11-19T05:18:59.934Z,79.46
2023-11-19T05:21:26.598Z,78.76
2023-11-19T05:23:53.172Z,79.53
2023-11-19T05:26:22.368Z,79.01
2023-11-19T05:28:49.929Z,79.68
2023-11-19T05:31:18.204Z,78.88
2023-11-19T05:33:45.156Z,79.64
2023-11-19T05:36:13.892Z,79.17
2023-11-19T05:38:40.993Z,79.53
2023-11-19T05:41:08.170Z,79.57
2023-11-19T05:43:35.065Z,79.54
2023-11-19T05:46:02.768Z,79.01
2023-11-19T05:48:30.084Z,78.84
2023-11-19T05:50:56.810Z,78.96
2023-11-19T05:53:23.467Z,79.13
2023-11-19T05:55:55.990Z,78.79
2023-11-19T05:58:29.638Z,79.24
2023-11-19T06:00:57.380Z,78.56
2023-11-19T06:03:24.769Z,79.36
2023-11-19T06:05:51.687Z,78.54
2023-11-19T06:08:18.499Z,79.13
2023-11-19T06:10:51.692Z,79.56
2023-11-19T06:13:18.345Z,78.83
2023-11-19T06:15:45.405Z,79.50
2023-11-19T06:18:13.713Z,79.41
2023-11-19T06:20:44.219Z,79.13
2023-11-19T06:23:11.031Z,79.61
2023-11-19T06:25:37.883Z,80.12
2023-11-19T06:28:05.638Z,79.82
2023-11-19T06:30:33.964Z,78.96
2023-11-19T06:33:01.605Z,79.23
2023-11-19T06:35:30.311Z,79.14
2023-11-19T06:37:57.278Z,79.02
2023-11-19T06:40:23.977Z,79.75
2023-11-19T06:42:50.655Z,79.40
2023-11-19T06:45:17.297Z,79.85
2023-11-19T06:47:44.049Z,79.70
2023-11-19T06:50:10.899Z,80.07
2023-11-19T06:52:38.513Z,79.84
2023-11-19T06:55:09.318Z,80.11
2023-11-19T06:57:36.319Z,80.13
2023-11-19T07:00:03.588Z,79.13
2023-11-19T07:02:30.336Z,79.25
2023-11-19T07:04:57.017Z,79.82
2023-11-19T07:07:23.712Z,79.54
2023-11-19T07:09:51.239Z,80.07
2023-11-19T07:12:17.825Z,79.70
2023-11-19T07:14:44.445Z,79.80
2023-11-19T07:17:11.487Z,80.29
2023-11-19T07:19:39.740Z,79.26
2023-11-19T07:22:08.054Z,79.20
2023-11-19T07:24:34.828Z,79.92
2023-11-19T07:27:01.965Z,80.32
2023-11-19T07:29:29.736Z,79.55
2023-11-19T07:31:57.534Z,80.04
2023-11-19T07:34:25.951Z,80.34
2023-11-19T07:36:53.266Z,79.90
2023-11-19T07:39:21.933Z,79.73
2023-11-19T07:41:48.650Z,79.95
2023-11-19T07:44:15.922Z,80.58
2023-11-19T07:46:43.510Z,80.41
2023-11-19T07:49:11.451Z,80.74
2023-11-19T07:51:38.495Z,80.04
2023-11-19T07:54:05.663Z,81.02
2023-11-19T07:56:35.761Z,80.43
2023-11-19T07:59:02.887Z,80.63
2023-11-19T08:01:29.732Z,81.09
2023-11-19T08:04:00.185Z,80.25
2023-11-19T08:06:27.410Z,80.37
2023-11-19T08:08:54.303Z,80.30
2023-11-19T08:11:21.419Z,80.76
2023-11-19T08:13:48.535Z,81.12
2023-11-19T08:16:16.352Z,81.09
2023-11-19T08:18:44.620Z,80.13
2023-11-19T08:21:11.725Z,80.31
2023-11-19T08:23:39.327Z,80.14
2023-11-19T08:26:06.971Z,80.76
2023-11-19T08:28:35.745Z,80.83
2023-11-19T08:31:05.446Z,79.84
2023-11-19T08:33:32.391Z,79.81
2023-11-19T08:35:59.714Z,79.43
2023-11-19T08:41:00.956Z,79.59
2023-11-19T08:43:28.234Z,79.99
2023-11-19T08:45:55.242Z,79.70
2023-11-19T08:48:22.035Z,79.32
2023-11-19T08:50:49.211Z,79.72
2023-11-19T08:53:16.384Z,79.57
2023-11-19T08:55:43.212Z,78.58
2023-11-19T08:58:10.088Z,79.60
2023-11-19T09:00:36.928Z,79.83
2023-11-19T09:03:04.673Z,78.47
2023-11-19T09:05:31.776Z,78.55
2023-11-19T09:07:58.397Z,79.34
2023-11-19T09:10:25.083Z,79.30
2023-11-19T09:12:51.667Z,79.19
2023-11-19T09:15:18.382Z,78.71
2023-11-19T09:17:45.057Z,78.83
2023-11-19T09:20:15.948Z,79.95
2023-11-19T09:22:43.158Z,78.84
2023-11-19T09:25:10.344Z,78.74
2023-11-19T09:27:36.894Z,80.12
2023-11-19T09:30:05.058Z,79.31
2023-11-19T09:32:31.992Z,80.28
2023-11-19T09:34:58.817Z,79.10
2023-11-19T09:37:25.417Z,80.27
2023-11-19T09:39:52.018Z,80.43
2023-11-19T09:42:19.156Z,80.04
2023-11-19T09:44:46.306Z,79.95
2023-11-19T09:47:15.080Z,80.68
2023-11-19T09:49:42.307Z,80.07
2023-11-19T09:52:09.036Z,80.49
2023-11-19T09:54:35.921Z,80.03
2023-11-19T09:57:05.355Z,79.95
2023-11-19T09:59:33.240Z,80.91
2023-11-19T10:02:00.880Z,80.47
2023-11-19T10:04:31.342Z,80.29
2023-11-19T10:06:58.432Z,80.19
2023-11-19T10:09:25.192Z,80.34
2023-11-19T10:11:51.903Z,81.24
2023-11-19T10:14:24.126Z,81.15
2023-11-19T10:16:50.743Z,80.05
2023-11-19T10:19:21.941Z,79.99
2023-11-19T10:21:48.972Z,80.95
2023-11-19T10:24:30.103Z,80.50
2023-11-19T10:26:58.573Z,80.66
2023-11-19T10:29:25.529Z,80.43
2023-11-19T10:32:23.808Z,80.32
2023-11-19T10:34:46.867Z,80.43
2023-11-19T10:37:33.054Z,79.92
2023-11-19T10:39:59.770Z,79.43
2023-11-19T10:42:26.575Z,79.67
2023-11-19T10:44:53.300Z,79.35
2023-11-19T10:47:37.717Z,79.65
2023-11-19T10:50:07.450Z,79.82
2023-11-19T10:52:34.959Z,79.21
2023-11-19T10:55:03.629Z,79.01
2023-11-19T10:57:34.267Z,79.82
2023-11-19T11:00:03.580Z,79.09
2023-11-19T11:02:35.784Z,78.69
2023-11-19T11:05:04.228Z,78.90
2023-11-19T11:07:39.712Z,78.09
2023-11-19T11:10:10.720Z,78.02
2023-11-19T11:12:39.319Z,77.92
2023-11-19T11:15:08.149Z,78.29
2023-11-19T11:17:35.740Z,78.83
2023-11-19T11:20:04.131Z,78.51
2023-11-19T11:22:44.343Z,78.85
2023-11-19T11:25:50.804Z,78.58
2023-11-19T11:31:16.361Z,78.53
2023-11-19T11:34:07.413Z,77.62
2023-11-19T11:36:48.181Z,78.26
2023-11-19T11:39:16.249Z,77.49
2023-11-19T11:41:42.869Z,78.60
2023-11-19T11:44:10.128Z,78.44
2023-11-19T11:49:13.743Z,78.13
2023-11-19T11:57:19.293Z,77.48
2023-11-19T12:02:23.528Z,77.49
2023-11-19T12:04:52.562Z,78.05
2023-11-19T12:07:23.548Z,77.18
2023-11-19T12:09:55.728Z,77.37
2023-11-19T12:12:23.808Z,77.08
2023-11-19T12:15:11.158Z,78.06
2023-11-19T12:17:41.982Z,77.82
2023-11-19T12:20:10.299Z,77.81
2023-11-19T12:22:39.694Z,78.01
2023-11-19T12:25:08.132Z,78.16
2023-11-19T12:27:35.915Z,77.84
2023-11-19T12:30:07.365Z,77.83
2023-11-19T12:32:44.175Z,77.72
2023-11-19T12:35:12.942Z,77.98
2023-11-19T12:37:57.843Z,78.29
2023-11-19T12:40:26.194Z,77.45
2023-11-19T12:42:54.721Z,77.18
2023-11-19T12:45:22.893Z,77.45
2023-11-19T12:47:50.708Z,77.69
2023-11-19T12:50:20.220Z,77.59
2023-11-19T12:53:02.553Z,76.85
2023-11-19T12:55:31.401Z,77.17
2023-11-19T12:58:00.342Z,77.01
2023-11-19T13:00:28.674Z,76.67
2023-11-19T13:02:57.519Z,76.67
2023-11-19T13:10:57.621Z,76.71
2023-11-19T13:13:24.193Z,77.36
2023-11-19T13:15:50.942Z,77.00
2023-11-19T13:18:17.981Z,77.36
2023-11-19T13:20:44.887Z,76.72
2023-11-19T13:23:11.762Z,77.50
2023-11-19T13:25:38.343Z,77.80
2023-11-19T13:28:05.156Z,77.78
2023-11-19T13:30:40.586Z,78.05
2023-11-19T13:33:07.319Z,77.60
2023-11-19T13:35:34.094Z,78.50
2023-11-19T13:38:00.791Z,78.68
2023-11-19T13:40:27.967Z,78.70
2023-11-19T13:42:54.694Z,78.77
2023-11-19T13:45:22.204Z,79.47
2023-11-19T13:47:49.200Z,78.82
2023-11-19T13:50:18.136Z,78.64
2023-11-19T13:52:47.330Z,78.38
2023-11-19T13:55:14.817Z,78.98
2023-11-19T13:57:43.202Z,79.89
2023-11-19T14:00:14.524Z,78.84
2023-11-19T14:02:42.359Z,79.35
2023-11-19T14:05:10.426Z,78.39
2023-11-19T14:07:37.260Z,79.42
2023-11-19T14:10:04.394Z,78.81
2023-11-19T14:12:31.600Z,79.30
2023-11-19T14:14:58.210Z,79.86
2023-11-19T14:17:26.185Z,79.68
2023-11-19T14:19:53.179Z,79.73
2023-11-19T14:22:19.843Z,80.03
2023-11-19T14:24:46.471Z,80.01
2023-11-19T14:27:13.330Z,79.65
2023-11-19T14:29:41.446Z,79.30
2023-11-19T14:32:08.243Z,79.53
2023-11-19T14:34:35.037Z,80.13
2023-11-19T14:37:01.937Z,80.38
2023-11-19T14:39:30.590Z,79.61
2023-11-19T14:41:59.635Z,79.89
2023-11-19T14:44:26.310Z,79.51
2023-11-19T14:46:53.177Z,80.19
2023-11-19T14:49:19.879Z,80.31
2023-11-19T14:51:48.916Z,80.17
2023-11-19T14:54:17.061Z,79.39
2023-11-19T14:56:44.002Z,79.54
2023-11-19T14:59:10.694Z,80.26
2023-11-19T15:01:37.527Z,79.61
2023-11-19T15:04:06.617Z,79.78
2023-11-19T15:06:35.033Z,79.32
2023-11-19T15:09:02.455Z,79.26
2023-11-19T15:11:29.078Z,80.46
2023-11-19T15:13:55.794Z,79.13
2023-11-19T15:16:32.354Z,79.19
2023-11-19T15:19:06.903Z,80.84
2023-11-19T15:21:33.798Z,79.67
2023-11-19T15:24:00.745Z,79.55
2023-11-19T15:26:27.508Z,79.90
2023-11-19T15:28:58.888Z,79.67
2023-11-19T15:31:25.652Z,80.30
2023-11-19T15:33:52.901Z,79.80
2023-11-19T15:36:19.676Z,80.01
2023-11-19T15:41:16.414Z,79.75
2023-11-19T15:43:43.104Z,79.55
2023-11-19T15:46:10.751Z,78.78
2023-11-19T15:48:37.905Z,78.96
2023-11-19T15:51:05.160Z,78.49
2023-11-19T15:53:32.265Z,78.40
2023-11-19T15:55:59.549Z,77.94
2023-11-19T15:58:26.467Z,78.78
2023-11-19T16:00:53.132Z,77.83
2023-11-19T16:03:19.883Z,77.82
2023-11-19T16:05:47.923Z,77.40
2023-11-19T16:08:17.126Z,77.89
2023-11-19T16:10:45.076Z,78.07
2023-11-19T16:13:11.695Z,78.05
2023-11-19T16:15:38.799Z,78.37
2023-11-19T16:18:05.925Z,77.88
2023-11-19T16:20:35.168Z,77.92
2023-11-19T16:23:02.546Z,77.28
2023-11-19T16:25:29.140Z,76.70
2023-11-19T16:27:57.028Z,77.05
2023-11-19T16:30:23.915Z,76.67
2023-11-19T16:32:58.095Z,77.35
2023-11-19T16:35:24.874Z,76.80
2023-11-19T16:37:51.915Z,77.20
2023-11-19T16:40:18.933Z,77.07
2023-11-19T16:42:47.664Z,76.61
2023-11-19T16:45:15.009Z,76.40
2023-11-19T16:47:42.133Z,77.24
2023-11-19T16:50:09.201Z,76.71
2023-11-19T16:52:36.888Z,77.20
2023-11-19T16:55:07.143Z,76.35
2023-11-19T16:57:33.855Z,76.45
2023-11-19T17:00:00.436Z,76.47
2023-11-19T17:02:27.252Z,76.29
2023-11-19T17:04:53.964Z,76.97
2023-11-19T17:07:20.596Z,76.16
2023-11-19T17:09:47.923Z,75.94
2023-11-19T17:12:14.628Z,76.01
2023-11-19T17:14:41.418Z,76.19
2023-11-19T17:17:08.182Z,76.18
2023-11-19T17:19:34.902Z,76.47
2023-11-19T17:22:01.615Z,75.95
2023-11-19T17:24:28.216Z,76.54
2023-11-19T17:26:54.947Z,75.75
2023-11-19T17:29:23.007Z,76.08
2023-11-19T17:31:49.797Z,76.07
2023-11-19T17:34:16.453Z,75.60
2023-11-19T17:36:43.171Z,75.82
2023-11-19T17:39:09.942Z,75.51
2023-11-19T17:41:36.687Z,75.08
2023-11-19T17:44:03.398Z,75.22
2023-11-19T17:46:30.219Z,75.83
2023-11-19T17:48:56.970Z,76.04
2023-11-19T17:51:23.926Z,75.41
2023-11-19T17:53:50.778Z,76.28
2023-11-19T17:56:17.507Z,75.69
2023-11-19T17:58:44.399Z,76.16
2023-11-19T18:01:12.436Z,75.53
2023-11-19T18:03:39.492Z,75.21
2023-11-19T18:06:07.514Z,75.28
2023-11-19T18:08:34.382Z,75.88
2023-11-19T18:11:01.191Z,75.39
2023-11-19T18:13:27.848Z,75.41
2023-11-19T18:15:55.033Z,75.79
2023-11-19T18:18:22.876Z,74.97
2023-11-19T18:20:49.816Z,75.03
2023-11-19T18:23:16.740Z,75.14
2023-11-19T18:25:43.472Z,75.87
2023-11-19T18:28:10.145Z,76.00
2023-11-19T18:30:36.956Z,75.84
2023-11-19T18:33:04.125Z,74.95
2023-11-19T18:35:31.128Z,75.73
2023-11-19T18:37:57.857Z,74.97
2023-11-19T18:40:25.596Z,76.01
2023-11-19T18:42:54.784Z,75.10
2023-11-19T18:45:23.843Z,75.39
2023-11-19T18:47:52.567Z,75.45
2023-11-19T18:50:20.437Z,74.80
2023-11-19T18:52:47.889Z,76.05
2023-11-19T18:55:14.771Z,76.18
2023-11-19T18:57:42.648Z,75.13
2023-11-19T19:00:11.457Z,74.97
2023-11-19T19:02:39.596Z,75.83
2023-11-19T19:05:07.072Z,75.09
2023-11-19T19:07:34.414Z,75.47
2023-11-19T19:10:03.158Z,75.16
2023-11-19T19:12:29.835Z,75.18
2023-11-19T19:15:16.510Z,76.13
2023-11-19T19:17:45.548Z,74.98
2023-11-19T19:20:13.138Z,75.22
2023-11-19T19:22:41.446Z,75.14
2023-11-19T19:25:08.936Z,75.92
2023-11-19T19:27:35.898Z,75.66
2023-11-19T19:30:02.573Z,75.02
2023-11-19T19:32:29.306Z,75.90
2023-11-19T19:34:56.137Z,74.96
2023-11-19T19:37:24.459Z,74.82
2023-11-19T19:39:52.064Z,75.32
2023-11-19T19:42:18.877Z,74.91
2023-11-19T19:44:46.349Z,76.13
2023-11-19T19:47:13.222Z,75.19
2023-11-19T19:49:40.037Z,76.13
2023-11-19T19:52:07.165Z,75.99
2023-11-19T19:54:35.381Z,75.22
2023-11-19T19:57:02.246Z,76.11
2023-11-19T19:59:31.746Z,75.44
2023-11-19T20:02:00.046Z,74.99
2023-11-19T20:04:27.065Z,75.01
2023-11-19T20:06:54.149Z,75.55
2023-11-19T20:09:20.899Z,75.11
2023-11-19T20:11:49.168Z,76.25
2023-11-19T20:14:15.842Z,75.70
2023-11-19T20:16:43.122Z,74.97
2023-11-19T20:19:09.843Z,76.19
2023-11-19T20:21:37.725Z,75.25
2023-11-19T20:24:05.042Z,75.19
2023-11-19T20:26:31.966Z,74.97
2023-11-19T20:31:28.338Z,75.62
2023-11-19T20:33:55.104Z,74.77
2023-11-19T20:36:23.268Z,76.16
2023-11-19T20:38:52.184Z,74.99
2023-11-19T20:41:19.732Z,75.14
2023-11-19T20:43:46.712Z,74.78
2023-11-19T20:46:15.518Z,74.77
2023-11-19T20:48:42.584Z,75.52
2023-11-19T20:51:09.248Z,75.26
2023-11-19T20:53:35.993Z,76.01
2023-11-19T20:56:04.301Z,74.81
2023-11-19T20:58:31.174Z,75.23
2023-11-19T21:00:57.893Z,75.20
2023-11-19T21:03:24.935Z,75.42
2023-11-19T21:05:55.505Z,75.12
2023-11-19T21:08:24.133Z,75.36
2023-11-19T21:10:52.604Z,75.71
2023-11-19T21:13:21.660Z,75.89
2023-11-19T21:15:56.511Z,74.92
2023-11-19T21:18:25.663Z,74.97
2023-11-19T21:20:52.301Z,75.60
2023-11-19T21:23:22.231Z,75.35
2023-11-19T21:25:49.368Z,75.41
2023-11-19T21:28:16.039Z,75.77
2023-11-19T21:30:42.984Z,76.07
2023-11-19T21:33:09.849Z,75.04
2023-11-19T21:35:38.783Z,76.19
2023-11-19T21:38:05.829Z,75.51
2023-11-19T21:40:32.997Z,75.12
2023-11-19T21:43:00.941Z,75.41
2023-11-19T21:45:27.763Z,74.96
2023-11-19T21:47:54.535Z,75.35
2023-11-19T21:50:24.341Z,75.74
2023-11-19T21:52:51.542Z,75.06
2023-11-19T21:55:18.454Z,75.98
2023-11-19T21:57:45.335Z,75.67
2023-11-19T22:00:16.503Z,76.13
2023-11-19T22:02:43.641Z,75.06
2023-11-19T22:05:10.508Z,75.76
2023-11-19T22:07:37.928Z,75.00
2023-11-19T22:10:05.423Z,75.54
2023-11-19T22:12:32.246Z,75.98
2023-11-19T22:14:58.834Z,76.35
2023-11-19T22:17:25.492Z,76.15
2023-11-19T22:19:52.436Z,75.44
2023-11-19T22:22:19.237Z,75.96
2023-11-19T22:24:46.389Z,75.31
2023-11-19T22:27:13.247Z,75.11
2023-11-19T22:29:39.909Z,74.91
2023-11-19T22:32:07.193Z,74.82
2023-11-19T22:34:33.998Z,74.61
2023-11-19T22:37:00.676Z,75.56
2023-11-19T22:39:27.402Z,74.50
2023-11-19T22:41:54.209Z,74.54
2023-11-19T22:44:20.927Z,74.12
2023-11-19T22:46:47.623Z,74.58
2023-11-19T22:49:14.385Z,74.79
2023-11-19T22:51:41.165Z,75.24
2023-11-19T22:54:07.828Z,75.16
2023-11-19T22:56:43.716Z,75.08
2023-11-19T22:59:10.556Z,74.80
2023-11-19T23:01:38.089Z,75.10
2023-11-19T23:04:05.672Z,74.55
2023-11-19T23:06:32.550Z,75.29
2023-11-19T23:08:59.343Z,75.41
2023-11-19T23:11:26.042Z,75.06
2023-11-19T23:13:52.779Z,75.14
2023-11-19T23:16:21.763Z,75.79
2023-11-19T23:18:48.551Z,75.35
2023-11-19T23:21:15.532Z,75.59
2023-11-19T23:23:42.322Z,74.85
2023-11-19T23:26:08.950Z,75.51
2023-11-19T23:28:35.716Z,75.73
2023-11-19T23:31:02.550Z,75.17
2023-11-19T23:33:29.443Z,75.14
2023-11-19T23:35:58.131Z,75.27
2023-11-19T23:38:25.082Z,75.38
2023-11-19T23:40:51.898Z,75.68
2023-11-19T23:43:18.582Z,75.59
2023-11-19T23:45:45.494Z,76.01
2023-11-19T23:48:12.398Z,75.87
2023-11-19T23:50:59.687Z,75.88
2023-11-19T23:53:26.368Z,76.10
2023-11-19T23:55:53.140Z,75.30
2023-11-19T23:58:20.168Z,75.17
